Time;durP1;ratioP1;P1;durP2;ratioP2;P2;SDS_P1;SDS_P2;PMS_P1;PMS_P2;Temp;Humidity;BMP_temperature;BMP_pressure;BME280_temperature;BME280_humidity;BME280_pressure;Samples;Min_cycle;Max_cycle;Signal;HPM_P1;HPM_P2
2024/02/21 00:01:35;;;;;;;18.42;5.53;;;8.10;99.90;;;;;;5034979;28;20118;-83
2024/02/21 00:04:01;;;;;;;13.50;3.65;;;8.10;99.90;;;;;;5035130;28;20067;-82
2024/02/21 00:06:27;;;;;;;16.00;3.83;;;8.10;99.90;;;;;;5037506;28;20096;-83
2024/02/21 00:08:52;;;;;;;17.83;4.90;;;8.10;99.90;;;;;;5031609;28;20061;-83
2024/02/21 00:11:18;;;;;;;12.30;3.90;;;8.10;99.90;;;;;;5033453;28;20681;-83
2024/02/21 00:13:43;;;;;;;11.23;3.63;;;8.10;99.90;;;;;;5032491;28;20124;-83
2024/02/21 00:16:10;;;;;;;12.32;3.97;;;8.10;99.90;;;;;;5037739;28;20035;-83
2024/02/21 00:18:36;;;;;;;12.45;3.58;;;8.10;99.90;;;;;;5048506;28;20049;-83
2024/02/21 00:21:01;;;;;;;16.33;4.68;;;8.10;99.90;;;;;;5048442;28;20029;-83
2024/02/21 00:23:28;;;;;;;14.85;4.70;;;8.10;99.90;;;;;;5053616;28;20117;-84
2024/02/21 00:25:54;;;;;;;15.55;3.35;;;8.10;99.90;;;;;;5054651;28;20025;-84
2024/02/21 00:28:19;;;;;;;14.88;4.57;;;8.10;99.90;;;;;;5047191;28;20033;-83
2024/02/21 00:30:47;;;;;;;15.45;5.00;;;8.10;99.90;;;;;;5055298;28;20033;-83
2024/02/21 00:33:13;;;;;;;13.45;4.63;;;8.10;99.90;;;;;;5058107;28;20021;-82
2024/02/21 00:35:39;;;;;;;14.60;3.90;;;8.10;99.90;;;;;;5054635;28;20031;-82
2024/02/21 00:38:04;;;;;;;12.13;4.63;;;8.10;99.90;;;;;;5048369;28;20029;-82
2024/02/21 00:40:30;;;;;;;16.17;4.30;;;8.10;99.90;;;;;;5050642;28;20032;-82
2024/02/21 00:42:55;;;;;;;10.15;4.10;;;8.10;99.90;;;;;;5052529;28;20029;-84
2024/02/21 00:45:21;;;;;;;13.68;3.97;;;8.10;99.90;;;;;;5054706;28;20044;-82
2024/02/21 00:47:47;;;;;;;11.07;3.78;;;8.10;99.90;;;;;;5053881;28;20080;-82
2024/02/21 00:50:12;;;;;;;15.27;5.32;;;8.10;99.90;;;;;;5061821;28;20040;-84
2024/02/21 00:52:38;;;;;;;15.40;4.60;;;8.10;99.90;;;;;;5052763;28;20021;-82
2024/02/21 00:55:04;;;;;;;13.57;4.13;;;8.10;99.90;;;;;;5056606;28;20048;-83
2024/02/21 00:57:30;;;;;;;14.75;4.13;;;8.10;99.90;;;;;;5061503;28;20033;-82
2024/02/21 00:59:55;;;;;;;10.10;3.75;;;8.10;99.90;;;;;;5059534;28;20170;-83
2024/02/21 01:02:21;;;;;;;13.25;4.20;;;8.10;99.90;;;;;;5055181;28;20029;-82
2024/02/21 01:04:46;;;;;;;15.23;4.20;;;8.10;99.90;;;;;;5062036;28;20061;-82
2024/02/21 01:07:12;;;;;;;18.65;4.43;;;8.00;99.90;;;;;;5059240;28;20025;-83
2024/02/21 01:09:38;;;;;;;16.00;4.00;;;8.10;99.90;;;;;;5053663;28;20068;-84
2024/02/21 01:12:03;;;;;;;18.92;6.50;;;8.10;99.90;;;;;;5053298;28;20071;-83
2024/02/21 01:14:29;;;;;;;17.90;5.00;;;8.00;99.90;;;;;;5058017;28;20415;-83
2024/02/21 01:16:55;;;;;;;15.13;4.30;;;8.10;99.90;;;;;;5058649;28;20064;-83
2024/02/21 01:19:20;;;;;;;10.65;4.32;;;8.10;99.90;;;;;;5056189;28;20033;-84
2024/02/21 01:21:46;;;;;;;12.60;4.05;;;8.10;99.90;;;;;;5053727;28;20024;-83
2024/02/21 01:24:11;;;;;;;15.48;3.53;;;8.00;99.90;;;;;;5057414;28;21906;-83
2024/02/21 01:26:37;;;;;;;9.85;4.28;;;8.00;99.90;;;;;;5050095;28;20660;-81
2024/02/21 01:29:03;;;;;;;16.33;4.10;;;8.00;99.90;;;;;;5067098;28;20065;-82
2024/02/21 01:31:29;;;;;;;18.35;4.68;;;8.00;99.90;;;;;;5048680;28;20025;-81
2024/02/21 01:33:55;;;;;;;19.98;5.28;;;8.00;99.90;;;;;;5050900;28;20467;-81
2024/02/21 01:36:21;;;;;;;13.00;4.43;;;8.00;99.90;;;;;;5052876;28;20042;-81
2024/02/21 01:38:46;;;;;;;12.23;4.13;;;8.00;99.90;;;;;;5059863;28;20116;-83
2024/02/21 01:41:12;;;;;;;8.93;3.88;;;8.00;99.90;;;;;;5054099;28;20048;-83
2024/02/21 01:43:37;;;;;;;14.45;4.22;;;8.00;99.90;;;;;;5054195;28;20036;-82
2024/02/21 01:46:03;;;;;;;12.57;4.63;;;8.00;99.90;;;;;;5049865;28;20047;-83
2024/02/21 01:48:30;;;;;;;10.98;3.72;;;8.00;99.90;;;;;;5054674;28;20031;-83
2024/02/21 01:50:56;;;;;;;12.63;4.90;;;7.90;99.90;;;;;;5055117;28;20021;-82
2024/02/21 01:53:34;;;;;;;16.35;4.80;;;7.90;99.90;;;;;;5057831;28;20108;-82
2024/02/21 01:56:01;;;;;;;11.32;4.15;;;7.90;99.90;;;;;;5053391;28;20033;-82
2024/02/21 01:58:28;;;;;;;13.82;4.32;;;7.90;99.90;;;;;;5054890;28;20028;-83
2024/02/21 02:00:56;;;;;;;17.63;3.95;;;7.90;99.90;;;;;;5051448;28;20040;-82
2024/02/21 02:03:22;;;;;;;13.93;3.95;;;7.90;99.90;;;;;;5069694;28;20029;-82
2024/02/21 02:05:49;;;;;;;18.38;5.10;;;7.90;99.90;;;;;;5054796;28;20032;-82
2024/02/21 02:08:19;;;;;;;13.45;3.65;;;7.90;99.90;;;;;;5055204;28;20062;-83
2024/02/21 02:10:46;;;;;;;11.27;4.55;;;7.90;99.90;;;;;;5054984;28;20017;-83
2024/02/21 02:13:12;;;;;;;15.68;4.28;;;7.90;99.90;;;;;;5060497;28;20514;-83
2024/02/21 02:15:41;;;;;;;10.43;3.72;;;7.90;99.90;;;;;;5051674;28;20120;-82
2024/02/21 02:18:07;;;;;;;16.08;3.65;;;7.90;99.90;;;;;;5063359;28;20037;-82
2024/02/21 02:20:32;;;;;;;11.77;3.50;;;7.90;99.90;;;;;;5049120;28;20028;-83
2024/02/21 02:23:00;;;;;;;20.25;4.97;;;7.90;99.90;;;;;;5056565;28;20021;-81
2024/02/21 02:25:26;;;;;;;16.20;4.15;;;7.90;99.90;;;;;;5055290;28;20063;-82
2024/02/21 02:27:52;;;;;;;14.60;5.00;;;7.90;99.90;;;;;;5046280;28;20029;-82
2024/02/21 02:30:17;;;;;;;14.07;4.80;;;7.80;99.90;;;;;;5046378;28;20021;-82
2024/02/21 02:32:46;;;;;;;9.35;4.20;;;7.80;99.90;;;;;;5041322;28;20033;-82
2024/02/21 02:35:12;;;;;;;13.13;4.03;;;7.90;99.90;;;;;;5056012;28;20021;-82
2024/02/21 02:37:40;;;;;;;12.60;3.83;;;7.80;99.90;;;;;;5050592;28;20024;-83
2024/02/21 02:40:07;;;;;;;13.68;3.13;;;7.80;99.90;;;;;;5047207;28;20418;-82
2024/02/21 02:42:33;;;;;;;10.48;3.65;;;7.80;99.90;;;;;;5046137;28;20029;-82
2024/02/21 02:44:58;;;;;;;8.85;3.50;;;7.80;99.90;;;;;;5055725;28;20124;-82
2024/02/21 02:47:24;;;;;;;12.57;3.95;;;7.80;99.90;;;;;;5053982;28;20025;-82
2024/02/21 02:49:50;;;;;;;18.35;3.88;;;7.90;99.90;;;;;;5049419;28;20055;-81
2024/02/21 02:52:17;;;;;;;10.75;3.30;;;7.90;99.90;;;;;;5050824;28;20025;-82
2024/02/21 02:54:43;;;;;;;12.73;3.90;;;7.90;99.90;;;;;;5050925;28;20032;-82
2024/02/21 02:57:09;;;;;;;14.80;3.63;;;7.90;99.90;;;;;;5052933;28;20017;-82
2024/02/21 02:59:35;;;;;;;14.45;4.03;;;7.80;99.90;;;;;;5038290;28;20490;-82
2024/02/21 03:02:01;;;;;;;15.07;4.15;;;7.90;99.90;;;;;;5038878;28;20053;-82
2024/02/21 03:04:26;;;;;;;14.27;3.80;;;7.80;99.90;;;;;;5058642;28;20083;-82
2024/02/21 03:06:52;;;;;;;17.98;4.20;;;7.80;99.90;;;;;;5048394;28;20033;-82
2024/02/21 03:09:18;;;;;;;10.45;3.40;;;7.80;99.90;;;;;;5053143;28;20021;-82
2024/02/21 03:11:44;;;;;;;12.70;3.95;;;7.80;99.90;;;;;;5050489;28;20255;-82
2024/02/21 03:14:10;;;;;;;11.38;4.07;;;7.80;99.90;;;;;;5050297;28;20029;-82
2024/02/21 03:16:36;;;;;;;11.80;3.88;;;7.80;99.90;;;;;;5060267;28;20049;-82
2024/02/21 03:19:01;;;;;;;16.50;4.05;;;7.80;99.90;;;;;;5048344;28;20413;-82
2024/02/21 03:21:27;;;;;;;10.60;4.03;;;7.80;99.90;;;;;;5056802;28;20032;-82
2024/02/21 03:23:52;;;;;;;11.43;3.35;;;7.80;99.90;;;;;;5053264;28;20025;-82
2024/02/21 03:26:18;;;;;;;14.88;3.65;;;7.80;99.90;;;;;;5055668;28;20028;-82
2024/02/21 03:28:46;;;;;;;14.48;3.97;;;7.80;99.90;;;;;;5051534;23;20045;-46
2024/02/21 03:31:13;;;;;;;12.57;4.03;;;7.80;99.90;;;;;;5027386;28;20483;-48
2024/02/21 03:33:39;;;;;;;13.95;3.90;;;7.80;99.90;;;;;;5026299;28;20434;-46
2024/02/21 03:36:05;;;;;;;8.68;3.88;;;7.80;99.90;;;;;;5024664;28;20032;-51
2024/02/21 03:38:31;;;;;;;9.90;3.53;;;7.80;99.90;;;;;;5030398;28;20029;-47
2024/02/21 03:40:56;;;;;;;11.82;3.10;;;7.80;99.90;;;;;;5031649;28;20032;-46
2024/02/21 03:43:22;;;;;;;13.35;4.13;;;7.80;99.90;;;;;;5034317;28;20040;-48
2024/02/21 03:45:47;;;;;;;13.80;3.97;;;7.80;99.90;;;;;;5030118;28;20403;-48
2024/02/21 03:48:13;;;;;;;12.13;3.53;;;7.80;99.90;;;;;;5025625;28;20030;-48
2024/02/21 03:50:38;;;;;;;15.70;3.47;;;7.80;99.90;;;;;;5024589;28;20107;-45
2024/02/21 03:53:04;;;;;;;17.00;3.75;;;7.80;99.90;;;;;;5022816;28;20057;-46
2024/02/21 03:55:29;;;;;;;11.55;3.33;;;7.80;99.90;;;;;;5029997;28;20045;-48
2024/02/21 03:57:55;;;;;;;12.75;4.20;;;7.80;99.90;;;;;;5030117;28;20814;-46
2024/02/21 04:00:20;;;;;;;12.95;3.15;;;7.80;99.90;;;;;;5010473;28;20510;-47
2024/02/21 04:02:46;;;;;;;13.63;3.70;;;7.80;99.90;;;;;;5032990;28;20055;-48
2024/02/21 04:05:15;;;;;;;7.70;3.30;;;7.80;99.90;;;;;;5034650;28;20029;-48
2024/02/21 04:07:40;;;;;;;13.40;3.05;;;7.80;99.90;;;;;;5030914;28;20039;-50
2024/02/21 04:10:06;;;;;;;11.20;3.70;;;7.80;99.90;;;;;;5033472;28;20469;-49
2024/02/21 04:12:32;;;;;;;14.32;3.53;;;7.80;99.90;;;;;;5025496;28;20562;-45
2024/02/21 04:14:58;;;;;;;21.13;3.78;;;7.80;99.90;;;;;;5038959;28;20143;-46
2024/02/21 04:17:23;;;;;;;11.73;3.47;;;7.80;99.90;;;;;;5038863;28;20152;-47
2024/02/21 04:19:49;;;;;;;19.73;4.28;;;7.80;99.90;;;;;;5033377;28;20059;-48
2024/02/21 04:22:14;;;;;;;12.15;3.58;;;7.80;99.90;;;;;;5027395;28;20079;-48
2024/02/21 04:24:40;;;;;;;10.18;3.53;;;7.80;99.90;;;;;;5028911;28;20589;-45
2024/02/21 04:27:05;;;;;;;9.82;4.05;;;7.80;99.90;;;;;;5033263;28;20108;-47
2024/02/21 04:29:31;;;;;;;13.23;3.63;;;7.80;99.90;;;;;;5039595;28;20056;-48
2024/02/21 04:31:56;;;;;;;16.77;3.50;;;7.80;99.90;;;;;;5030922;28;20025;-48
2024/02/21 04:34:22;;;;;;;16.58;3.80;;;7.70;99.90;;;;;;5041199;28;20068;-48
2024/02/21 04:36:47;;;;;;;9.25;3.60;;;7.80;99.90;;;;;;5034887;28;20391;-48
2024/02/21 04:39:13;;;;;;;8.82;3.05;;;7.70;99.90;;;;;;5034407;28;20032;-46
2024/02/21 04:41:39;;;;;;;16.83;3.95;;;7.80;99.90;;;;;;5031403;28;20732;-46
2024/02/21 04:44:04;;;;;;;12.90;3.78;;;7.80;99.90;;;;;;5037571;28;20033;-49
2024/02/21 04:46:30;;;;;;;11.02;3.60;;;7.70;99.90;;;;;;5035903;28;20037;-48
2024/02/21 04:48:56;;;;;;;13.90;2.97;;;7.70;99.90;;;;;;5038535;28;20034;-51
2024/02/21 04:51:21;;;;;;;22.45;4.20;;;7.80;99.90;;;;;;5037114;28;20033;-47
2024/02/21 04:53:47;;;;;;;14.00;3.20;;;7.80;99.90;;;;;;5039246;28;20029;-46
2024/02/21 04:56:12;;;;;;;14.70;3.35;;;7.80;99.90;;;;;;5035253;28;20036;-50
2024/02/21 04:58:39;;;;;;;10.85;3.55;;;7.70;99.90;;;;;;5018423;28;20053;-48
2024/02/21 05:01:05;;;;;;;11.85;3.30;;;7.70;99.90;;;;;;5027774;28;20501;-50
2024/02/21 05:03:30;;;;;;;16.60;3.53;;;7.70;99.90;;;;;;5038405;28;20045;-49
2024/02/21 05:05:56;;;;;;;19.48;4.45;;;7.70;99.90;;;;;;5025787;28;20029;-51
2024/02/21 05:08:21;;;;;;;11.10;3.40;;;7.80;99.90;;;;;;5036798;28;20067;-47
2024/02/21 05:10:47;;;;;;;9.27;3.10;;;7.70;99.90;;;;;;5030418;28;20486;-48
2024/02/21 05:13:12;;;;;;;16.58;3.13;;;7.70;99.90;;;;;;5032160;28;20890;-48
2024/02/21 05:15:38;;;;;;;14.55;3.22;;;7.70;99.90;;;;;;5029511;28;20036;-49
2024/02/21 05:18:04;;;;;;;18.67;4.50;;;7.70;99.90;;;;;;5029801;28;20029;-45
2024/02/21 05:20:29;;;;;;;12.88;3.15;;;7.70;99.90;;;;;;5033370;28;20450;-46
2024/02/21 05:22:55;;;;;;;13.98;3.20;;;7.70;99.90;;;;;;5030736;28;20037;-46
2024/02/21 05:25:20;;;;;;;16.52;3.97;;;7.70;99.90;;;;;;5026310;28;20045;-48
2024/02/21 05:27:46;;;;;;;9.70;3.08;;;7.70;99.90;;;;;;5031120;28;20034;-50
2024/02/21 05:30:12;;;;;;;9.60;3.47;;;7.70;99.90;;;;;;5030940;28;20349;-49
2024/02/21 05:32:37;;;;;;;14.13;3.00;;;7.70;99.90;;;;;;5036997;28;20079;-49
2024/02/21 05:35:03;;;;;;;8.15;2.70;;;7.70;99.90;;;;;;5032524;28;20028;-50
2024/02/21 05:37:29;;;;;;;8.57;3.33;;;7.70;99.90;;;;;;5040245;28;20025;-51
2024/02/21 05:39:54;;;;;;;10.68;3.65;;;7.70;99.90;;;;;;5029393;28;20101;-49
2024/02/21 05:42:20;;;;;;;17.90;3.10;;;7.70;99.90;;;;;;5038476;28;20189;-49
2024/02/21 05:44:45;;;;;;;10.02;3.55;;;7.70;99.90;;;;;;5036798;28;20045;-50
2024/02/21 05:47:13;;;;;;;7.13;2.72;;;7.70;99.90;;;;;;5031990;28;20422;-50
2024/02/21 05:49:39;;;;;;;9.48;3.03;;;7.70;99.90;;;;;;5037364;28;20017;-50
2024/02/21 05:52:05;;;;;;;11.27;3.40;;;7.70;99.90;;;;;;5029930;28;20034;-49
2024/02/21 05:54:31;;;;;;;14.30;3.28;;;7.70;99.90;;;;;;5034632;28;20676;-52
2024/02/21 05:56:57;;;;;;;14.13;4.00;;;7.70;99.90;;;;;;5036292;28;20136;-49
2024/02/21 05:59:23;;;;;;;9.88;2.63;;;7.70;99.90;;;;;;5027621;28;20116;-49
2024/02/21 06:01:58;;;;;;;11.50;3.03;;;7.70;99.90;;;;;;5031982;28;20026;-49
2024/02/21 06:04:24;;;;;;;11.63;3.20;;;7.60;99.90;;;;;;5025646;28;20045;-49
2024/02/21 06:06:49;;;;;;;10.13;2.78;;;7.70;99.90;;;;;;5027246;28;20028;-49
2024/02/21 06:09:15;;;;;;;16.70;3.05;;;7.70;99.90;;;;;;5029376;28;20029;-52
2024/02/21 06:11:40;;;;;;;10.25;3.47;;;7.70;99.90;;;;;;5027700;28;20025;-52
2024/02/21 06:14:06;;;;;;;10.18;3.22;;;7.70;99.90;;;;;;5034125;28;20079;-52
2024/02/21 06:16:31;;;;;;;9.57;3.28;;;7.70;99.90;;;;;;5023102;28;20025;-52
2024/02/21 06:18:57;;;;;;;12.10;4.00;;;7.70;99.90;;;;;;5024819;28;20030;-51
2024/02/21 06:21:22;;;;;;;9.57;3.30;;;7.70;99.90;;;;;;5027932;28;20074;-49
2024/02/21 06:23:48;;;;;;;8.68;3.25;;;7.70;99.90;;;;;;5029768;28;20021;-51
2024/02/21 06:26:13;;;;;;;7.75;3.03;;;7.70;99.90;;;;;;5029157;28;20040;-50
2024/02/21 06:28:39;;;;;;;10.73;2.75;;;7.70;99.90;;;;;;5036663;28;20555;-50
2024/02/21 06:31:04;;;;;;;12.98;2.83;;;7.70;99.90;;;;;;5032345;28;20032;-52
2024/02/21 06:33:30;;;;;;;10.65;3.55;;;7.70;99.90;;;;;;5036844;28;20059;-51
2024/02/21 06:35:56;;;;;;;9.65;3.20;;;7.70;99.90;;;;;;5037043;28;20067;-52
2024/02/21 06:38:22;;;;;;;13.35;3.35;;;7.70;99.90;;;;;;5035654;28;20044;-49
2024/02/21 06:40:50;;;;;;;13.65;3.30;;;7.70;99.90;;;;;;5033549;28;20034;-51
2024/02/21 06:43:18;;;;;;;21.75;3.90;;;7.70;99.90;;;;;;5037525;28;20033;-49
2024/02/21 06:45:47;;;;;;;9.32;3.20;;;7.70;99.90;;;;;;5036494;28;20076;-52
2024/02/21 06:48:13;;;;;;;11.07;3.05;;;7.70;99.90;;;;;;5034161;28;20028;-53
2024/02/21 06:50:38;;;;;;;10.45;3.45;;;7.70;99.90;;;;;;5032926;28;20029;-52
2024/02/21 06:53:04;;;;;;;8.98;3.05;;;7.70;99.90;;;;;;5037629;28;20035;-50
2024/02/21 06:55:29;;;;;;;7.43;2.72;;;7.70;99.90;;;;;;5036342;28;20033;-50
2024/02/21 06:57:55;;;;;;;17.83;2.95;;;7.70;99.90;;;;;;5033144;28;20025;-53
2024/02/21 07:00:20;;;;;;;7.78;2.92;;;7.70;99.90;;;;;;5028252;28;20044;-52
2024/02/21 07:02:47;;;;;;;13.13;3.05;;;7.80;99.90;;;;;;5033632;28;20036;-50
2024/02/21 07:05:13;;;;;;;8.48;3.40;;;7.80;99.90;;;;;;5033118;28;20049;-51
2024/02/21 07:07:40;;;;;;;9.80;2.88;;;7.80;99.90;;;;;;5020689;28;20034;-52
2024/02/21 07:10:06;;;;;;;14.52;3.28;;;7.90;99.90;;;;;;5026919;28;20033;-51
2024/02/21 07:12:32;;;;;;;7.72;2.75;;;7.90;99.90;;;;;;5021503;28;20037;-49
2024/02/21 07:14:57;;;;;;;7.95;2.88;;;8.00;99.90;;;;;;5025360;28;20022;-50
2024/02/21 07:17:23;;;;;;;15.60;3.97;;;8.00;99.90;;;;;;5002088;28;20048;-50
2024/02/21 07:19:48;;;;;;;10.77;3.75;;;8.10;99.90;;;;;;5016096;28;20022;-51
2024/02/21 07:22:14;;;;;;;11.95;2.53;;;8.20;99.90;;;;;;5027855;28;20022;-49
2024/02/21 07:24:39;;;;;;;14.18;2.67;;;8.20;99.90;;;;;;5030637;28;20030;-51
2024/02/21 07:27:05;;;;;;;13.43;2.95;;;8.20;99.90;;;;;;5022638;28;20026;-49
2024/02/21 07:29:31;;;;;;;12.57;2.75;;;8.30;99.90;;;;;;5022398;28;20033;-51
2024/02/21 07:31:56;;;;;;;11.38;3.13;;;8.40;99.90;;;;;;5026047;28;20029;-49
2024/02/21 07:34:22;;;;;;;12.35;4.30;;;8.30;99.90;;;;;;5025173;28;20060;-52
2024/02/21 07:36:47;;;;;;;6.35;2.17;;;8.30;99.90;;;;;;5028707;28;20040;-50
2024/02/21 07:39:13;;;;;;;11.23;2.95;;;8.30;99.90;;;;;;5028833;28;20108;-53
2024/02/21 07:41:40;;;;;;;8.02;2.85;;;8.20;99.90;;;;;;5022184;28;20028;-51
2024/02/21 07:44:05;;;;;;;11.60;3.20;;;8.20;99.90;;;;;;5030988;28;20044;-50
2024/02/21 07:46:31;;;;;;;9.25;2.40;;;8.20;99.90;;;;;;5029912;28;20026;-50
2024/02/21 07:48:56;;;;;;;7.47;2.60;;;8.20;99.90;;;;;;5025945;28;20029;-49
2024/02/21 07:51:22;;;;;;;10.13;3.03;;;8.20;99.90;;;;;;5029519;28;20029;-53
2024/02/21 07:53:48;;;;;;;11.48;2.47;;;8.10;99.90;;;;;;5024739;28;20018;-49
2024/02/21 07:56:15;;;;;;;9.63;2.63;;;8.10;99.90;;;;;;5017957;28;20049;-51
2024/02/21 07:58:41;;;;;;;6.43;2.15;;;8.20;99.90;;;;;;5026251;28;20037;-49
2024/02/21 08:01:08;;;;;;;8.77;2.63;;;8.20;99.90;;;;;;5030079;28;20021;-50
2024/02/21 08:03:33;;;;;;;7.88;2.20;;;8.20;99.90;;;;;;5026962;28;20068;-51
2024/02/21 08:05:59;;;;;;;7.05;2.92;;;8.20;99.90;;;;;;5033067;28;20065;-49
2024/02/21 08:08:24;;;;;;;7.95;3.40;;;8.20;99.90;;;;;;5030390;28;20029;-52
2024/02/21 08:10:50;;;;;;;9.48;2.95;;;8.20;99.90;;;;;;5033147;28;20022;-49
2024/02/21 08:13:16;;;;;;;10.35;2.45;;;8.10;99.90;;;;;;5024573;28;20076;-49
2024/02/21 08:15:41;;;;;;;15.88;2.88;;;8.20;99.90;;;;;;5033172;28;20037;-51
2024/02/21 08:18:08;;;;;;;9.00;3.03;;;8.20;99.90;;;;;;5024458;28;20033;-50
2024/02/21 08:20:33;;;;;;;10.05;3.00;;;8.30;99.90;;;;;;5021801;28;20064;-49
2024/02/21 08:23:00;;;;;;;8.02;2.63;;;8.20;99.90;;;;;;5031908;28;20030;-50
2024/02/21 08:25:25;;;;;;;14.27;3.20;;;8.30;99.90;;;;;;5028666;28;20033;-51
2024/02/21 08:27:53;;;;;;;11.60;2.53;;;8.40;99.90;;;;;;5030016;28;20036;-49
2024/02/21 08:30:20;;;;;;;15.68;3.67;;;8.40;99.90;;;;;;5024247;28;20423;-49
2024/02/21 08:32:45;;;;;;;14.40;3.15;;;8.50;99.90;;;;;;5027354;28;20170;-49
2024/02/21 08:35:12;;;;;;;11.90;3.17;;;8.50;99.90;;;;;;5033626;28;20037;-50
2024/02/21 08:37:37;;;;;;;9.50;2.95;;;8.40;99.90;;;;;;5031973;28;20083;-51
2024/02/21 08:40:08;;;;;;;11.10;3.17;;;8.50;99.90;;;;;;5032328;28;20398;-50
2024/02/21 08:42:39;;;;;;;11.43;3.38;;;8.50;99.90;;;;;;5027311;28;20041;-49
2024/02/21 08:45:04;;;;;;;13.50;4.05;;;8.50;99.90;;;;;;5027729;28;20029;-51
2024/02/21 08:47:30;;;;;;;10.07;4.35;;;8.60;99.90;;;;;;5026111;28;20060;-50
2024/02/21 08:49:56;;;;;;;17.42;6.57;;;8.80;99.90;;;;;;5032958;28;20036;-51
2024/02/21 08:52:21;;;;;;;13.70;3.78;;;8.90;99.90;;;;;;5028002;28;20030;-51
2024/02/21 08:54:47;;;;;;;29.05;9.18;;;8.90;99.90;;;;;;5025170;28;20022;-52
2024/02/21 08:57:13;;;;;;;24.95;7.05;;;9.00;99.90;;;;;;5024378;28;20049;-49
2024/02/21 08:59:39;;;;;;;16.70;5.28;;;9.00;99.90;;;;;;5023789;28;20028;-53
2024/02/21 09:02:07;;;;;;;23.42;8.15;;;9.00;99.90;;;;;;5030257;28;20021;-50
2024/02/21 09:04:33;;;;;;;9.20;4.50;;;9.00;99.90;;;;;;5031297;28;20403;-51
2024/02/21 09:06:58;;;;;;;11.07;3.17;;;9.00;99.90;;;;;;5030841;28;20462;-51
2024/02/21 09:09:24;;;;;;;14.95;3.85;;;9.10;99.90;;;;;;5025570;28;20099;-51
2024/02/21 09:11:50;;;;;;;24.45;8.85;;;9.30;99.90;;;;;;5027076;28;20045;-50
2024/02/21 09:14:15;;;;;;;9.93;3.47;;;9.40;99.90;;;;;;5024850;28;20167;-49
2024/02/21 09:16:41;;;;;;;15.05;3.20;;;9.50;99.90;;;;;;5025674;28;20485;-49
2024/02/21 09:19:10;;;;;;;10.27;3.05;;;9.50;99.90;;;;;;5030525;28;20144;-49
2024/02/21 09:21:36;;;;;;;11.95;3.70;;;9.70;99.90;;;;;;5029009;28;20033;-49
2024/02/21 09:24:02;;;;;;;13.85;4.00;;;9.90;99.90;;;;;;5027213;28;20049;-49
2024/02/21 09:26:28;;;;;;;8.30;2.65;;;10.10;99.90;;;;;;5021974;28;20496;-52
2024/02/21 09:28:53;;;;;;;15.88;5.35;;;10.50;99.90;;;;;;5022121;28;20037;-49
2024/02/21 09:31:19;;;;;;;17.33;6.78;;;10.40;99.90;;;;;;5023299;28;20041;-49
2024/02/21 09:33:45;;;;;;;45.65;18.73;;;10.40;99.90;;;;;;5033058;28;20061;-49
2024/02/21 09:36:10;;;;;;;80.00;26.85;;;10.50;99.90;;;;;;5032688;28;20108;-50
2024/02/21 09:38:36;;;;;;;63.28;21.13;;;10.70;99.90;;;;;;5037971;28;20029;-52
2024/02/21 09:41:20;;;;;;;26.58;5.97;;;10.90;99.90;;;;;;5029793;28;20029;-50
2024/02/21 09:43:45;;;;;;;42.70;10.88;;;11.20;99.90;;;;;;5021210;28;20018;-52
2024/02/21 09:46:19;;;;;;;28.80;7.80;;;11.00;99.90;;;;;;5033066;28;20041;-49
2024/02/21 09:49:22;;;;;;;79.05;23.67;;;10.90;99.90;;;;;;5024076;28;20048;-50
2024/02/21 09:51:51;;;;;;;28.88;9.27;;;10.90;99.90;;;;;;5004651;28;20128;-50
2024/02/21 09:54:18;;;;;;;27.23;8.13;;;10.70;99.90;;;;;;5026335;28;20391;-49
2024/02/21 09:56:46;;;;;;;9.73;4.72;;;10.90;99.90;;;;;;5028856;28;20029;-50
2024/02/21 09:59:13;;;;;;;22.55;7.07;;;11.20;99.90;;;;;;5025910;28;20490;-50
2024/02/21 10:01:39;;;;;;;20.00;4.55;;;11.10;99.90;;;;;;5023924;28;20037;-52
2024/02/21 10:04:04;;;;;;;57.58;17.88;;;11.20;99.90;;;;;;5028737;28;20029;-49
2024/02/21 10:06:30;;;;;;;32.70;11.35;;;11.10;99.90;;;;;;5023818;28;20034;-49
2024/02/21 10:08:56;;;;;;;8.02;2.63;;;11.00;99.90;;;;;;5028875;28;20543;-50
2024/02/21 10:11:25;;;;;;;20.77;4.10;;;11.10;99.90;;;;;;5030349;28;20164;-51
2024/02/21 10:13:51;;;;;;;12.30;5.15;;;11.10;99.90;;;;;;5027359;28;20030;-49
2024/02/21 10:16:17;;;;;;;13.30;3.20;;;11.30;99.90;;;;;;5029386;28;20075;-49
2024/02/21 10:18:42;;;;;;;10.57;3.13;;;11.50;99.90;;;;;;5023629;28;20033;-50
2024/02/21 10:21:08;;;;;;;12.32;2.80;;;11.80;99.90;;;;;;5030143;28;20033;-49
2024/02/21 10:23:50;;;;;;;9.38;2.75;;;11.70;99.90;;;;;;5027167;28;20069;-50
2024/02/21 10:26:18;;;;;;;12.00;2.88;;;11.60;99.90;;;;;;5018565;28;20996;-50
2024/02/21 10:28:48;;;;;;;10.02;3.20;;;11.60;99.90;;;;;;5025496;28;20819;-50
2024/02/21 10:31:27;;;;;;;14.18;4.05;;;11.80;99.90;;;;;;5030874;28;20044;-50
2024/02/21 10:33:59;;;;;;;5.57;2.30;;;11.60;99.90;;;;;;5025175;28;20137;-50
2024/02/21 10:36:25;;;;;;;10.23;2.97;;;12.00;99.90;;;;;;5026812;28;20430;-50
2024/02/21 10:38:52;;;;;;;13.50;3.00;;;11.80;99.90;;;;;;5026379;28;20049;-49
2024/02/21 10:41:21;;;;;;;17.35;6.18;;;11.90;99.90;;;;;;5027725;28;20026;-50
2024/02/21 10:43:54;;;;;;;9.98;4.20;;;11.80;99.90;;;;;;5014228;28;20060;-53
2024/02/21 10:46:21;;;;;;;;;;;11.80;99.90;;;;;;5023202;28;20403;-49
2024/02/21 10:48:51;;;;;;;37.78;14.35;;;11.50;99.90;;;;;;5030171;28;19949;-53
2024/02/21 10:51:17;;;;;;;10.98;3.08;;;11.60;99.90;;;;;;5023112;28;20625;-52
2024/02/21 10:53:54;;;;;;;10.98;2.83;;;12.00;99.90;;;;;;5025785;28;20026;-51
2024/02/21 10:56:30;;;;;;;8.85;2.92;;;12.20;99.90;;;;;;5018968;28;20037;-49
2024/02/21 10:58:58;;;;;;;11.55;3.03;;;12.20;99.90;;;;;;5016183;28;20643;-49
2024/02/21 11:01:26;;;;;;;13.50;2.90;;;12.40;99.90;;;;;;5024504;28;20048;-50
2024/02/21 11:03:54;;;;;;;6.55;2.90;;;12.60;99.90;;;;;;5030873;28;20071;-52
2024/02/21 11:06:21;;;;;;;8.77;3.25;;;12.40;99.90;;;;;;5025517;28;20041;-49
2024/02/21 11:08:47;;;;;;;9.52;3.08;;;12.40;99.90;;;;;;5031172;28;20056;-51
2024/02/21 11:11:18;;;;;;;13.68;4.30;;;12.40;99.90;;;;;;5023973;28;20057;-49
2024/02/21 11:13:45;;;;;;;22.58;5.50;;;12.00;99.90;;;;;;5021437;28;20029;-50
2024/02/21 11:16:21;;;;;;;10.00;3.03;;;12.20;99.90;;;;;;5023703;28;20091;-49
2024/02/21 11:18:46;;;;;;;9.43;2.63;;;12.50;99.90;;;;;;5031592;28;20452;-50
2024/02/21 11:21:12;;;;;;;11.23;2.28;;;12.40;99.90;;;;;;5029847;28;20047;-50
2024/02/21 11:23:37;;;;;;;17.73;5.30;;;12.60;99.90;;;;;;5034407;28;20037;-50
2024/02/21 11:26:10;;;;;;;13.80;2.70;;;12.40;99.90;;;;;;5029816;28;20076;-50
2024/02/21 11:28:37;;;;;;;6.95;2.55;;;12.50;99.90;;;;;;5009388;28;20060;-49
2024/02/21 11:31:16;;;;;;;8.85;2.50;;;12.50;99.90;;;;;;5019271;28;20132;-51
2024/02/21 11:33:43;;;;;;;10.48;2.47;;;12.60;99.90;;;;;;5026038;28;20028;-52
2024/02/21 11:36:26;;;;;;;8.82;3.28;;;12.50;99.90;;;;;;5028407;28;20040;-49
2024/02/21 11:38:53;;;;;;;8.38;2.50;;;12.60;99.90;;;;;;5023850;28;20022;-49
2024/02/21 11:41:20;;;;;;;12.75;3.05;;;12.60;99.90;;;;;;5024740;28;20065;-49
2024/02/21 11:43:46;;;;;;;13.82;3.55;;;12.60;99.90;;;;;;5025549;28;20040;-49
2024/02/21 11:46:14;;;;;;;21.98;6.57;;;12.50;99.90;;;;;;5028628;28;20399;-50
2024/02/21 11:48:41;;;;;;;10.07;3.60;;;12.40;99.90;;;;;;5028745;28;20438;-49
2024/02/21 11:51:06;;;;;;;17.38;6.72;;;12.60;99.90;;;;;;5017634;28;20484;-51
2024/02/21 11:53:33;;;;;;;19.15;7.65;;;12.50;99.90;;;;;;5028124;28;20104;-50
2024/02/21 11:55:58;;;;;;;8.27;2.75;;;12.40;99.90;;;;;;5028604;28;20025;-49
2024/02/21 11:58:25;;;;;;;8.25;2.30;;;12.50;99.90;;;;;;5023942;28;20048;-51
2024/02/21 12:00:51;;;;;;;11.90;2.95;;;12.70;99.90;;;;;;5020914;28;20149;-52
2024/02/21 12:03:17;;;;;;;12.68;3.83;;;12.80;99.90;;;;;;5030332;28;20037;-52
2024/02/21 12:05:43;;;;;;;10.50;3.38;;;12.60;99.90;;;;;;5028882;28;20034;-52
2024/02/21 12:08:08;;;;;;;8.13;2.55;;;12.60;99.90;;;;;;5026677;28;20028;-53
2024/02/21 12:10:35;;;;;;;5.60;2.58;;;12.60;99.90;;;;;;5024995;28;20033;-53
2024/02/21 12:13:08;;;;;;;6.55;3.13;;;12.70;99.90;;;;;;5026766;28;20033;-49
2024/02/21 12:15:34;;;;;;;11.10;2.47;;;12.80;99.90;;;;;;5024376;28;20116;-51
2024/02/21 12:18:00;;;;;;;12.82;2.88;;;12.70;99.90;;;;;;5021435;28;20138;-50
2024/02/21 12:20:26;;;;;;;9.15;2.83;;;12.70;99.90;;;;;;5023279;28;20559;-53
2024/02/21 12:22:54;;;;;;;8.43;2.80;;;12.50;99.90;;;;;;5027086;28;20033;-49
2024/02/21 12:25:26;;;;;;;10.98;2.00;;;12.50;99.90;;;;;;5029653;28;20057;-50
2024/02/21 12:27:52;;;;;;;10.20;2.47;;;12.60;99.90;;;;;;5028546;28;20040;-50
2024/02/21 12:30:19;;;;;;;6.68;2.05;;;12.60;99.90;;;;;;5026970;28;20041;-51
2024/02/21 12:32:45;;;;;;;5.75;1.95;;;12.60;99.90;;;;;;5032421;28;20079;-49
2024/02/21 12:35:10;;;;;;;7.13;2.38;;;12.40;99.90;;;;;;5030190;28;20029;-49
2024/02/21 12:37:37;;;;;;;10.38;2.15;;;12.50;99.90;;;;;;5035848;28;20162;-52
2024/02/21 12:40:07;;;;;;;10.02;2.20;;;12.50;99.90;;;;;;5029434;28;20013;-49
2024/02/21 12:42:33;;;;;;;8.75;2.13;;;12.50;99.90;;;;;;5030853;28;20119;-51